Time;durP1;ratioP1;P1;durP2;ratioP2;P2;SDS_P1;SDS_P2;PMS_P1;PMS_P2;Temp;Humidity;BMP_temperature;BMP_pressure;BME280_temperature;BME280_humidity;BME280_pressure;Samples;Min_cycle;Max_cycle;Signal;HPM_P1;HPM_P2
2023/03/14 00:01:11;;;;;;;0.80;0.80;;;;;;;;;;5092832;27;20306;-66
2023/03/14 00:03:39;;;;;;;0.70;0.70;;;;;;;;;;5090746;27;20238;-65
2023/03/14 00:06:07;;;;;;;2.93;1.00;;;;;;;;;;5093015;27;20244;-66
2023/03/14 00:08:35;;;;;;;2.23;0.70;;;;;;;;;;5086640;27;20958;-66
2023/03/14 00:11:07;;;;;;;2.17;0.80;;;;;;;;;;5104753;27;20307;-66
2023/03/14 00:13:34;;;;;;;1.00;0.70;;;;;;;;;;5083585;27;20242;-66
2023/03/14 00:16:02;;;;;;;0.60;0.60;;;;;;;;;;5097429;27;20742;-66
2023/03/14 00:18:30;;;;;;;0.83;0.60;;;;;;;;;;5108390;27;20207;-66
2023/03/14 00:21:01;;;;;;;0.70;0.70;;;;;;;;;;5089686;27;20203;-65
2023/03/14 00:23:29;;;;;;;1.43;0.70;;;;;;;;;;5113407;27;20269;-66
2023/03/14 00:26:07;;;;;;;0.60;0.60;;;;;;;;;;5084106;27;21990;-65
2023/03/14 00:28:35;;;;;;;0.70;0.70;;;;;;;;;;5086012;27;20314;-66
2023/03/14 00:31:03;;;;;;;0.70;0.70;;;;;;;;;;5097260;27;20355;-66
2023/03/14 00:33:31;;;;;;;1.43;1.10;;;;;;;;;;5088214;27;20228;-66
2023/03/14 00:36:03;;;;;;;0.83;0.60;;;;;;;;;;5109639;27;20211;-65
2023/03/14 00:38:31;;;;;;;0.57;0.57;;;;;;;;;;5088801;27;20213;-66
2023/03/14 00:40:59;;;;;;;0.60;0.60;;;;;;;;;;5092802;27;20214;-65
2023/03/14 00:43:26;;;;;;;1.27;0.60;;;;;;;;;;5098158;27;20753;-66
2023/03/14 00:45:53;;;;;;;0.80;0.80;;;;;;;;;;5090309;27;20310;-65
2023/03/14 00:48:21;;;;;;;0.60;0.60;;;;;;;;;;5090590;27;20868;-65
2023/03/14 00:50:49;;;;;;;0.70;0.70;;;;;;;;;;5097403;27;23075;-66
2023/03/14 00:53:17;;;;;;;0.70;0.70;;;;;;;;;;5093957;27;20259;-65
2023/03/14 00:55:44;;;;;;;0.77;0.70;;;;;;;;;;5093509;27;20247;-65
2023/03/14 00:58:13;;;;;;;0.70;0.70;;;;;;;;;;5099650;27;20282;-66
2023/03/14 01:00:40;;;;;;;0.60;0.60;;;;;;;;;;5112835;27;20208;-66
2023/03/14 01:03:08;;;;;;;0.80;0.80;;;;;;;;;;5107774;28;20232;-66
2023/03/14 01:05:35;;;;;;;0.50;0.50;;;;;;;;;;5097071;27;20219;-66
2023/03/14 01:08:03;;;;;;;0.60;0.60;;;;;;;;;;5112150;27;20579;-66
2023/03/14 01:10:31;;;;;;;2.63;0.80;;;;;;;;;;5089116;27;20685;-65
2023/03/14 01:12:59;;;;;;;0.70;0.70;;;;;;;;;;5086261;27;20628;-65
2023/03/14 01:15:26;;;;;;;0.70;0.70;;;;;;;;;;5088010;27;20712;-66
2023/03/14 01:17:54;;;;;;;0.70;0.70;;;;;;;;;;5101550;27;20908;-65
2023/03/14 01:20:21;;;;;;;0.60;0.60;;;;;;;;;;5088523;27;20253;-65
2023/03/14 01:22:48;;;;;;;0.80;0.80;;;;;;;;;;5085658;27;20253;-66
2023/03/14 01:25:17;;;;;;;0.70;0.70;;;;;;;;;;5082710;27;20238;-65
2023/03/14 01:27:44;;;;;;;0.80;0.80;;;;;;;;;;5067150;27;21170;-65
2023/03/14 01:30:12;;;;;;;0.60;0.60;;;;;;;;;;5070997;27;20372;-65
2023/03/14 01:32:40;;;;;;;0.67;0.67;;;;;;;;;;5086300;27;20211;-66
2023/03/14 01:35:08;;;;;;;1.20;0.70;;;;;;;;;;5109002;27;20307;-66
2023/03/14 01:37:35;;;;;;;0.70;0.70;;;;;;;;;;5085769;27;20745;-66
2023/03/14 01:40:03;;;;;;;0.80;0.80;;;;;;;;;;5088933;27;20216;-65
2023/03/14 01:42:31;;;;;;;0.70;0.70;;;;;;;;;;5100787;27;20204;-66
2023/03/14 01:44:59;;;;;;;0.70;0.70;;;;;;;;;;5085445;27;20330;-65
2023/03/14 01:47:27;;;;;;;0.70;0.70;;;;;;;;;;5103611;27;20231;-65
2023/03/14 01:49:58;;;;;;;1.07;0.97;;;;;;;;;;5091104;27;20198;-66
2023/03/14 01:52:34;;;;;;;0.80;0.80;;;;;;;;;;5102274;27;20235;-65
2023/03/14 01:55:17;;;;;;;0.87;0.80;;;;;;;;;;5085675;27;20673;-66
2023/03/14 01:57:49;;;;;;;0.80;0.80;;;;;;;;;;5082305;27;20874;-66
2023/03/14 02:00:18;;;;;;;0.90;0.90;;;;;;;;;;5089783;27;20880;-66
2023/03/14 02:02:47;;;;;;;0.83;0.83;;;;;;;;;;5084038;27;20297;-67
2023/03/14 02:05:16;;;;;;;1.00;1.00;;;;;;;;;;5088895;27;20312;-67
2023/03/14 02:07:49;;;;;;;1.17;0.90;;;;;;;;;;5084297;27;20298;-67
2023/03/14 02:10:18;;;;;;;0.90;0.90;;;;;;;;;;5089134;27;20290;-67
2023/03/14 02:12:47;;;;;;;0.90;0.90;;;;;;;;;;5087704;27;20227;-67
2023/03/14 02:15:14;;;;;;;0.87;0.87;;;;;;;;;;5091711;27;20204;-67
2023/03/14 02:17:43;;;;;;;1.60;0.80;;;;;;;;;;5087979;27;20215;-68
2023/03/14 02:20:13;;;;;;;0.93;0.90;;;;;;;;;;5087056;27;20207;-66
2023/03/14 02:22:42;;;;;;;0.87;0.87;;;;;;;;;;5084759;27;20308;-67
2023/03/14 02:25:19;;;;;;;1.03;1.00;;;;;;;;;;5089821;27;20583;-68
2023/03/14 02:27:47;;;;;;;0.90;0.90;;;;;;;;;;5083849;27;20225;-68
2023/03/14 02:30:20;;;;;;;1.10;1.10;;;;;;;;;;5069252;27;20623;-69
2023/03/14 02:32:49;;;;;;;0.83;0.83;;;;;;;;;;5083019;27;20220;-67
2023/03/14 02:35:19;;;;;;;0.80;0.80;;;;;;;;;;5084598;27;20207;-69
2023/03/14 02:37:49;;;;;;;0.87;0.87;;;;;;;;;;5089691;27;20279;-65
2023/03/14 02:40:17;;;;;;;0.90;0.90;;;;;;;;;;5085537;27;20953;-68
2023/03/14 02:42:45;;;;;;;0.77;0.77;;;;;;;;;;5088122;27;20735;-68
2023/03/14 02:45:12;;;;;;;1.20;1.03;;;;;;;;;;5084148;27;20816;-67
2023/03/14 02:47:46;;;;;;;0.90;0.90;;;;;;;;;;5086922;27;20424;-64
2023/03/14 02:50:16;;;;;;;0.70;0.70;;;;;;;;;;5087991;27;20223;-66
2023/03/14 02:52:43;;;;;;;1.13;0.90;;;;;;;;;;5091261;27;20313;-66
2023/03/14 02:55:10;;;;;;;1.30;0.90;;;;;;;;;;5086370;27;20232;-67
2023/03/14 02:57:38;;;;;;;1.40;0.90;;;;;;;;;;5092119;27;20196;-67
2023/03/14 03:00:06;;;;;;;0.80;0.80;;;;;;;;;;5105499;27;20284;-67
2023/03/14 03:02:33;;;;;;;0.90;0.90;;;;;;;;;;5101741;28;20249;-66
2023/03/14 03:05:00;;;;;;;1.77;1.07;;;;;;;;;;5116933;27;20250;-67
2023/03/14 03:07:28;;;;;;;0.80;0.80;;;;;;;;;;5105244;27;20204;-67
2023/03/14 03:09:55;;;;;;;1.03;0.80;;;;;;;;;;5106819;27;20304;-66
2023/03/14 03:12:23;;;;;;;0.80;0.80;;;;;;;;;;5085042;27;20286;-67
2023/03/14 03:14:50;;;;;;;1.13;0.90;;;;;;;;;;5085748;27;20250;-68
2023/03/14 03:17:17;;;;;;;0.80;0.80;;;;;;;;;;5079882;27;20230;-68
2023/03/14 03:19:45;;;;;;;1.00;0.90;;;;;;;;;;5084968;27;20204;-66
2023/03/14 03:22:12;;;;;;;0.97;0.90;;;;;;;;;;5082436;27;20728;-66
2023/03/14 03:24:40;;;;;;;1.00;1.00;;;;;;;;;;5087823;27;20220;-68
2023/03/14 03:27:07;;;;;;;0.97;0.80;;;;;;;;;;5083814;27;20294;-65
2023/03/14 03:29:34;;;;;;;0.80;0.80;;;;;;;;;;5088782;27;20296;-66
2023/03/14 03:32:02;;;;;;;0.73;0.73;;;;;;;;;;5099208;27;20208;-65
2023/03/14 03:34:30;;;;;;;0.70;0.70;;;;;;;;;;5081835;27;20298;-66
2023/03/14 03:36:58;;;;;;;0.90;0.90;;;;;;;;;;5079691;27;20257;-67
2023/03/14 03:39:26;;;;;;;0.80;0.80;;;;;;;;;;5106914;27;20211;-64
2023/03/14 03:41:53;;;;;;;1.00;0.90;;;;;;;;;;5083308;27;22200;-65
2023/03/14 03:44:20;;;;;;;0.70;0.70;;;;;;;;;;5091542;28;20308;-63
2023/03/14 03:46:49;;;;;;;1.83;0.90;;;;;;;;;;5085457;27;20364;-64
2023/03/14 03:49:16;;;;;;;1.03;1.00;;;;;;;;;;5090791;27;20220;-63
2023/03/14 03:51:43;;;;;;;1.03;0.70;;;;;;;;;;5087306;27;20744;-65
2023/03/14 03:54:10;;;;;;;1.50;0.93;;;;;;;;;;5087697;28;20231;-65
2023/03/14 03:56:38;;;;;;;0.83;0.80;;;;;;;;;;5084659;27;20205;-64
2023/03/14 03:59:05;;;;;;;1.00;0.90;;;;;;;;;;5090139;28;20235;-63
2023/03/14 04:01:32;;;;;;;1.83;0.90;;;;;;;;;;5085152;27;20211;-64
2023/03/14 04:04:01;;;;;;;0.77;0.77;;;;;;;;;;5085894;27;20220;-63
2023/03/14 04:06:28;;;;;;;1.13;1.03;;;;;;;;;;5090107;27;20342;-64
2023/03/14 04:08:56;;;;;;;0.80;0.80;;;;;;;;;;5088807;27;20221;-63
2023/03/14 04:11:24;;;;;;;0.90;0.90;;;;;;;;;;5084519;27;20203;-65
2023/03/14 04:13:51;;;;;;;1.10;1.00;;;;;;;;;;5067073;27;20391;-65
2023/03/14 04:16:20;;;;;;;1.00;1.00;;;;;;;;;;5096857;27;20199;-65
2023/03/14 04:18:48;;;;;;;1.50;1.13;;;;;;;;;;5093304;28;20219;-65
2023/03/14 04:21:15;;;;;;;2.07;1.07;;;;;;;;;;5087507;27;20288;-63
2023/03/14 04:23:43;;;;;;;1.20;1.10;;;;;;;;;;5090180;27;20312;-63
2023/03/14 04:26:11;;;;;;;1.73;0.90;;;;;;;;;;5104530;27;20346;-64
2023/03/14 04:28:38;;;;;;;1.10;1.00;;;;;;;;;;5070324;27;20219;-64
2023/03/14 04:31:10;;;;;;;1.17;1.10;;;;;;;;;;5075925;27;20261;-64
2023/03/14 04:33:37;;;;;;;0.90;0.90;;;;;;;;;;5080007;27;20231;-63
2023/03/14 04:36:06;;;;;;;1.23;1.00;;;;;;;;;;5075634;27;20207;-65
2023/03/14 04:38:33;;;;;;;1.43;1.00;;;;;;;;;;5086388;27;20207;-63
2023/03/14 04:41:01;;;;;;;3.23;1.10;;;;;;;;;;5073951;27;20229;-64
2023/03/14 04:43:28;;;;;;;2.80;1.17;;;;;;;;;;5068602;27;20246;-64
2023/03/14 04:45:56;;;;;;;1.00;1.00;;;;;;;;;;5076951;27;20262;-64
2023/03/14 04:48:24;;;;;;;1.20;1.10;;;;;;;;;;5069918;27;20203;-64
2023/03/14 04:50:52;;;;;;;1.63;1.00;;;;;;;;;;5084492;27;20231;-63
2023/03/14 04:53:19;;;;;;;1.77;1.00;;;;;;;;;;5074485;27;20227;-65
2023/03/14 04:55:51;;;;;;;0.70;0.70;;;;;;;;;;5084885;27;22091;-63
2023/03/14 04:58:19;;;;;;;1.23;1.00;;;;;;;;;;5097022;27;20681;-64
2023/03/14 05:00:46;;;;;;;1.27;1.00;;;;;;;;;;5105339;27;20868;-64
2023/03/14 05:03:17;;;;;;;0.70;0.70;;;;;;;;;;5103559;27;20231;-65
2023/03/14 05:05:45;;;;;;;1.67;1.10;;;;;;;;;;5125206;27;20629;-63
2023/03/14 05:08:13;;;;;;;1.80;0.90;;;;;;;;;;5101577;27;20322;-64
2023/03/14 05:10:40;;;;;;;1.00;1.00;;;;;;;;;;5090006;27;20949;-64
2023/03/14 05:13:07;;;;;;;1.53;1.00;;;;;;;;;;5082577;27;20712;-64
2023/03/14 05:15:35;;;;;;;3.70;1.00;;;;;;;;;;5089697;27;20286;-65
2023/03/14 05:18:02;;;;;;;3.70;2.80;;;;;;;;;;5082529;27;20297;-66
2023/03/14 05:20:30;;;;;;;7.40;4.77;;;;;;;;;;5066543;27;20208;-65
2023/03/14 05:22:58;;;;;;;16.67;10.67;;;;;;;;;;5059654;27;20327;-65
2023/03/14 05:25:25;;;;;;;8.27;4.70;;;;;;;;;;5066648;27;20297;-66
2023/03/14 05:27:56;;;;;;;5.97;3.10;;;;;;;;;;5062446;27;20310;-66
2023/03/14 05:30:23;;;;;;;2.07;1.97;;;;;;;;;;5060559;27;20681;-66
2023/03/14 05:32:51;;;;;;;3.03;2.77;;;;;;;;;;5084127;27;20209;-65
2023/03/14 05:35:19;;;;;;;5.30;3.47;;;;;;;;;;5081537;27;20210;-66
2023/03/14 05:37:46;;;;;;;2.03;1.40;;;;;;;;;;5089243;27;20294;-65
2023/03/14 05:40:13;;;;;;;1.43;1.43;;;;;;;;;;5094320;27;20272;-66
2023/03/14 05:42:41;;;;;;;1.80;1.70;;;;;;;;;;5090496;27;20517;-66
2023/03/14 05:45:08;;;;;;;1.37;1.27;;;;;;;;;;5093033;27;20200;-68
2023/03/14 05:47:36;;;;;;;2.43;1.60;;;;;;;;;;5090213;27;20228;-66
2023/03/14 05:50:03;;;;;;;3.00;1.30;;;;;;;;;;5104571;27;20199;-65
2023/03/14 05:52:31;;;;;;;1.33;1.13;;;;;;;;;;5087430;27;20215;-66
2023/03/14 05:54:58;;;;;;;1.07;1.07;;;;;;;;;;5091711;27;20268;-65
2023/03/14 05:57:26;;;;;;;1.33;1.23;;;;;;;;;;5097198;27;20211;-66
2023/03/14 05:59:53;;;;;;;1.37;1.27;;;;;;;;;;5090690;27;20295;-65
2023/03/14 06:02:21;;;;;;;1.87;1.13;;;;;;;;;;5086778;27;20203;-67
2023/03/14 06:04:49;;;;;;;2.23;1.00;;;;;;;;;;5106485;27;20227;-65
2023/03/14 06:07:16;;;;;;;2.57;1.10;;;;;;;;;;5090199;27;20717;-66
2023/03/14 06:09:43;;;;;;;1.90;1.47;;;;;;;;;;5107685;27;20681;-65
2023/03/14 06:12:11;;;;;;;1.87;1.50;;;;;;;;;;5098930;27;20196;-65
2023/03/14 06:14:38;;;;;;;1.60;1.17;;;;;;;;;;5087993;27;21100;-66
2023/03/14 06:17:06;;;;;;;1.33;1.27;;;;;;;;;;5092246;27;20211;-65
2023/03/14 06:19:33;;;;;;;1.27;1.20;;;;;;;;;;5088276;27;20207;-66
2023/03/14 06:22:01;;;;;;;1.50;1.40;;;;;;;;;;5091406;27;20322;-66
2023/03/14 06:24:28;;;;;;;1.77;1.60;;;;;;;;;;5084899;27;20231;-65
2023/03/14 06:26:55;;;;;;;1.90;1.80;;;;;;;;;;5099624;27;20792;-66
2023/03/14 06:29:23;;;;;;;3.57;2.47;;;;;;;;;;5079129;27;20214;-65
2023/03/14 06:31:50;;;;;;;2.03;1.50;;;;;;;;;;5071896;27;20267;-65
2023/03/14 06:34:17;;;;;;;1.93;1.17;;;;;;;;;;5086550;27;20226;-66
2023/03/14 06:36:46;;;;;;;0.80;0.80;;;;;;;;;;5073109;27;20811;-65
2023/03/14 06:39:13;;;;;;;1.70;1.00;;;;;;;;;;5075940;27;20235;-66
2023/03/14 06:41:41;;;;;;;1.17;1.00;;;;;;;;;;5073059;27;20330;-65
2023/03/14 06:44:08;;;;;;;0.90;0.90;;;;;;;;;;5071525;27;20676;-66
2023/03/14 06:46:36;;;;;;;1.97;1.10;;;;;;;;;;5072339;27;20223;-66
2023/03/14 06:49:03;;;;;;;1.70;1.20;;;;;;;;;;5078753;27;20606;-65
2023/03/14 06:51:31;;;;;;;1.10;1.10;;;;;;;;;;5073196;27;20195;-66
2023/03/14 06:53:58;;;;;;;1.00;1.00;;;;;;;;;;5074719;27;20215;-65
2023/03/14 06:56:26;;;;;;;1.67;1.30;;;;;;;;;;5088566;27;20948;-65
2023/03/14 06:58:53;;;;;;;1.10;1.10;;;;;;;;;;5101199;27;20203;-64
2023/03/14 07:01:23;;;;;;;0.90;0.90;;;;;;;;;;5108624;27;20211;-66
2023/03/14 07:03:50;;;;;;;1.73;0.93;;;;;;;;;;5101112;28;20227;-65
2023/03/14 07:06:18;;;;;;;1.00;1.00;;;;;;;;;;5126060;27;20268;-66
2023/03/14 07:08:46;;;;;;;0.90;0.90;;;;;;;;;;5105458;27;20302;-65
2023/03/14 07:11:13;;;;;;;0.90;0.90;;;;;;;;;;5089740;27;20216;-64
2023/03/14 07:13:41;;;;;;;1.00;1.00;;;;;;;;;;5089423;27;20253;-66
2023/03/14 07:16:08;;;;;;;2.17;1.10;;;;;;;;;;5089069;27;20207;-64
2023/03/14 07:18:37;;;;;;;1.27;0.90;;;;;;;;;;5088742;27;20317;-64
2023/03/14 07:21:05;;;;;;;2.37;0.90;;;;;;;;;;5085843;27;20212;-64
2023/03/14 07:23:33;;;;;;;1.23;1.13;;;;;;;;;;5110415;27;20250;-66
2023/03/14 07:26:01;;;;;;;1.47;1.30;;;;;;;;;;5076105;27;20233;-67
2023/03/14 07:28:28;;;;;;;2.30;1.00;;;;;;;;;;5078062;27;20212;-65
2023/03/14 07:30:56;;;;;;;1.50;1.37;;;;;;;;;;5074671;27;20368;-66
2023/03/14 07:33:23;;;;;;;1.43;1.33;;;;;;;;;;5098789;27;20737;-65
2023/03/14 07:35:51;;;;;;;1.53;1.30;;;;;;;;;;5092531;27;20208;-68
2023/03/14 07:38:18;;;;;;;2.97;1.63;;;;;;;;;;5070051;27;20221;-67
2023/03/14 07:40:49;;;;;;;1.97;1.20;;;;;;;;;;5090620;28;20211;-65
2023/03/14 07:43:16;;;;;;;1.20;1.20;;;;;;;;;;5086222;27;20813;-67
2023/03/14 07:45:46;;;;;;;1.20;1.20;;;;;;;;;;5090133;28;20254;-65
2023/03/14 07:48:17;;;;;;;1.00;1.00;;;;;;;;;;5087013;27;20208;-65
2023/03/14 07:50:44;;;;;;;0.80;0.80;;;;;;;;;;5108417;27;20207;-66
2023/03/14 07:53:12;;;;;;;1.00;0.90;;;;;;;;;;5089001;27;20313;-66
2023/03/14 07:55:40;;;;;;;0.80;0.80;;;;;;;;;;5089220;27;20922;-65
2023/03/14 07:58:07;;;;;;;1.50;0.90;;;;;;;;;;5086265;27;20206;-66
2023/03/14 08:00:35;;;;;;;0.60;0.60;;;;;;;;;;5075897;27;20295;-65
2023/03/14 08:03:02;;;;;;;0.70;0.70;;;;;;;;;;5091387;27;20353;-65
2023/03/14 08:05:30;;;;;;;0.80;0.80;;;;;;;;;;5081638;27;20206;-67
2023/03/14 08:07:57;;;;;;;0.70;0.70;;;;;;;;;;5090670;27;20250;-66
2023/03/14 08:10:25;;;;;;;0.77;0.77;;;;;;;;;;5074135;27;20199;-66
2023/03/14 08:12:55;;;;;;;2.03;1.07;;;;;;;;;;5087973;27;20211;-64
2023/03/14 08:15:22;;;;;;;0.90;0.90;;;;;;;;;;5093276;27;20223;-65
2023/03/14 08:17:51;;;;;;;1.70;0.83;;;;;;;;;;5101154;27;20824;-65
2023/03/14 08:20:18;;;;;;;1.23;0.90;;;;;;;;;;5101898;27;20292;-67
2023/03/14 08:22:45;;;;;;;0.80;0.80;;;;;;;;;;5111563;27;20219;-64
2023/03/14 08:25:13;;;;;;;0.60;0.60;;;;;;;;;;5098729;27;20223;-65
2023/03/14 08:27:41;;;;;;;0.80;0.80;;;;;;;;;;5082221;27;20228;-65
2023/03/14 08:30:10;;;;;;;1.53;0.80;;;;;;;;;;5074676;27;20296;-67
2023/03/14 08:32:38;;;;;;;0.80;0.80;;;;;;;;;;5098703;27;20213;-66
2023/03/14 08:35:06;;;;;;;2.57;0.90;;;;;;;;;;5073262;27;20218;-65
2023/03/14 08:37:33;;;;;;;1.33;0.70;;;;;;;;;;5101765;27;20223;-66
2023/03/14 08:40:04;;;;;;;1.10;1.00;;;;;;;;;;5075328;27;20203;-65
2023/03/14 08:42:33;;;;;;;1.23;0.80;;;;;;;;;;5091877;27;20308;-64
2023/03/14 08:45:01;;;;;;;0.80;0.80;;;;;;;;;;5075626;27;20354;-66
2023/03/14 08:47:28;;;;;;;1.00;1.00;;;;;;;;;;5093059;27;20287;-65
2023/03/14 08:49:55;;;;;;;1.20;1.10;;;;;;;;;;5084589;27;20260;-65
2023/03/14 08:52:24;;;;;;;0.83;0.83;;;;;;;;;;5081078;27;20214;-65
2023/03/14 08:54:51;;;;;;;0.60;0.60;;;;;;;;;;5087642;27;20702;-64
2023/03/14 08:57:18;;;;;;;0.77;0.77;;;;;;;;;;5072200;27;20214;-65
2023/03/14 08:59:46;;;;;;;1.73;0.80;;;;;;;;;;5088348;27;20307;-65
2023/03/14 09:02:13;;;;;;;0.80;0.80;;;;;;;;;;5088175;27;20203;-65
2023/03/14 09:04:41;;;;;;;0.73;0.73;;;;;;;;;;5087936;27;20227;-64
2023/03/14 09:07:08;;;;;;;0.80;0.80;;;;;;;;;;5088393;27;20219;-66
2023/03/14 09:09:35;;;;;;;0.93;0.80;;;;;;;;;;5085482;27;20294;-65
2023/03/14 09:12:04;;;;;;;0.67;0.67;;;;;;;;;;5080155;27;20252;-66
2023/03/14 09:14:32;;;;;;;0.83;0.73;;;;;;;;;;5070679;27;20232;-65
2023/03/14 09:16:59;;;;;;;0.70;0.70;;;;;;;;;;5074076;27;20238;-66
2023/03/14 09:19:26;;;;;;;1.50;0.70;;;;;;;;;;5094023;27;20812;-65
2023/03/14 09:21:55;;;;;;;1.57;0.93;;;;;;;;;;5077305;27;20326;-65
2023/03/14 09:24:22;;;;;;;0.70;0.70;;;;;;;;;;5072236;27;20227;-65
2023/03/14 09:26:49;;;;;;;1.37;0.70;;;;;;;;;;5074826;27;21014;-64
2023/03/14 09:29:17;;;;;;;0.70;0.70;;;;;;;;;;5075512;27;20661;-64
2023/03/14 09:31:44;;;;;;;0.70;0.70;;;;;;;;;;5078154;27;20204;-64
2023/03/14 09:34:12;;;;;;;0.73;0.70;;;;;;;;;;5084865;27;20269;-64
2023/03/14 09:36:39;;;;;;;0.90;0.90;;;;;;;;;;5096315;27;20256;-65
2023/03/14 09:39:07;;;;;;;0.77;0.73;;;;;;;;;;5094321;27;20219;-65
2023/03/14 09:41:36;;;;;;;0.67;0.67;;;;;;;;;;5092764;27;20273;-64
2023/03/14 09:44:12;;;;;;;0.77;0.77;;;;;;;;;;5092047;27;20258;-64
2023/03/14 09:46:42;;;;;;;1.00;0.90;;;;;;;;;;5091218;27;20372;-65
2023/03/14 09:49:21;;;;;;;4.70;0.70;;;;;;;;;;5106775;27;20208;-64
2023/03/14 09:51:50;;;;;;;0.70;0.70;;;;;;;;;;5088681;27;22327;-65
2023/03/14 09:54:23;;;;;;;0.70;0.70;;;;;;;;;;5090880;27;20223;-65
2023/03/14 09:56:52;;;;;;;0.60;0.60;;;;;;;;;;5084797;27;20230;-65
2023/03/14 09:59:19;;;;;;;0.70;0.70;;;;;;;;;;5089336;27;20211;-64
2023/03/14 10:01:47;;;;;;;0.87;0.87;;;;;;;;;;5104740;27;20362;-64
2023/03/14 10:04:16;;;;;;;0.60;0.60;;;;;;;;;;5089036;27;20327;-64
2023/03/14 10:06:43;;;;;;;1.80;0.90;;;;;;;;;;5091621;27;20228;-64
2023/03/14 10:09:15;;;;;;;0.80;0.80;;;;;;;;;;5088019;27;21208;-64
2023/03/14 10:11:43;;;;;;;1.70;0.80;;;;;;;;;;5080637;27;20288;-64
2023/03/14 10:14:16;;;;;;;0.80;0.80;;;;;;;;;;5090301;27;20680;-64
2023/03/14 10:16:45;;;;;;;0.70;0.70;;;;;;;;;;5088916;27;20632;-65
2023/03/14 10:19:17;;;;;;;1.07;0.90;;;;;;;;;;5073929;27;21304;-64
2023/03/14 10:21:51;;;;;;;2.73;0.90;;;;;;;;;;5080217;27;20203;-65
2023/03/14 10:24:20;;;;;;;0.80;0.80;;;;;;;;;;5088349;27;20276;-65
2023/03/14 10:26:49;;;;;;;0.60;0.60;;;;;;;;;;5085443;27;20336;-64
2023/03/14 10:29:17;;;;;;;0.80;0.80;;;;;;;;;;5090875;27;20252;-65
2023/03/14 10:31:52;;;;;;;1.60;0.70;;;;;;;;;;5078481;27;20208;-64
2023/03/14 10:34:27;;;;;;;1.37;0.70;;;;;;;;;;5077773;27;20564;-64
2023/03/14 10:36:56;;;;;;;1.40;0.80;;;;;;;;;;5070380;27;20615;-64
2023/03/14 10:39:56;;;;;;;0.60;0.60;;;;;;;;;;5071920;27;20925;-65
2023/03/14 10:42:28;;;;;;;1.00;0.83;;;;;;;;;;5043547;27;20754;-65
2023/03/14 10:45:01;;;;;;;0.80;0.77;;;;;;;;;;5068020;27;20741;-65
2023/03/14 10:47:29;;;;;;;2.70;0.90;;;;;;;;;;5064613;27;20274;-65
2023/03/14 10:49:57;;;;;;;0.93;0.70;;;;;;;;;;5074013;27;20208;-64
2023/03/14 10:52:26;;;;;;;2.87;0.80;;;;;;;;;;5095184;27;20238;-64
2023/03/14 10:55:13;;;;;;;1.57;0.70;;;;;;;;;;5087201;27;20229;-64
2023/03/14 10:57:41;;;;;;;0.93;0.93;;;;;;;;;;5088486;27;21670;-64
2023/03/14 11:00:19;;;;;;;1.03;0.73;;;;;;;;;;5104858;27;20200;-64
2023/03/14 11:02:55;;;;;;;0.80;0.70;;;;;;;;;;5103698;27;20272;-65
2023/03/14 11:05:32;;;;;;;0.87;0.80;;;;;;;;;;5109208;27;20252;-64
2023/03/14 11:08:08;;;;;;;1.70;0.73;;;;;;;;;;5101726;27;20259;-64
2023/03/14 11:10:43;;;;;;;1.60;1.50;;;;;;;;;;5110876;27;20759;-65
2023/03/14 11:13:16;;;;;;;2.30;1.00;;;;;;;;;;5082607;27;20231;-64
2023/03/14 11:16:03;;;;;;;0.77;0.77;;;;;;;;;;5087204;27;20662;-65
2023/03/14 11:18:37;;;;;;;1.20;0.90;;;;;;;;;;5087202;27;20999;-63
2023/03/14 11:21:10;;;;;;;1.43;1.03;;;;;;;;;;5104148;27;20255;-65
2023/03/14 11:24:01;;;;;;;0.80;0.80;;;;;;;;;;5085399;27;21231;-66
2023/03/14 11:26:33;;;;;;;1.83;0.90;;;;;;;;;;5075235;27;20215;-65
2023/03/14 11:29:21;;;;;;;0.83;0.80;;;;;;;;;;5089462;27;21298;-66
2023/03/14 11:31:49;;;;;;;0.70;0.70;;;;;;;;;;5083497;27;20204;-66
2023/03/14 11:34:17;;;;;;;0.90;0.80;;;;;;;;;;5096667;28;20219;-66
2023/03/14 11:36:49;;;;;;;1.00;0.83;;;;;;;;;;5105962;27;20267;-65
2023/03/14 11:39:18;;;;;;;0.70;0.70;;;;;;;;;;5102770;27;20290;-65
2023/03/14 11:41:52;;;;;;;0.97;0.97;;;;;;;;;;5099910;28;20188;-65
2023/03/14 11:44:26;;;;;;;1.37;0.80;;;;;;;;;;5116427;28;20223;-65
2023/03/14 11:46:58;;;;;;;0.77;0.77;;;;;;;;;;5127178;27;20680;-65
2023/03/14 11:49:29;;;;;;;0.93;0.93;;;;;;;;;;5108175;27;20235;-65
2023/03/14 11:52:00;;;;;;;0.97;0.97;;;;;;;;;;5099415;27;20289;-66
2023/03/14 11:54:46;;;;;;;1.67;0.73;;;;;;;;;;5097560;27;20231;-65
2023/03/14 11:57:18;;;;;;;1.03;0.97;;;;;;;;;;5112266;27;20319;-66
2023/03/14 12:00:12;;;;;;;0.70;0.70;;;;;;;;;;5113788;27;20204;-65
2023/03/14 12:02:59;;;;;;;1.80;0.90;;;;;;;;;;5114682;27;20222;-66
2023/03/14 12:05:45;;;;;;;0.90;0.90;;;;;;;;;;5112908;27;20740;-65
2023/03/14 12:08:19;;;;;;;0.63;0.63;;;;;;;;;;5097555;27;20227;-66
2023/03/14 12:10:48;;;;;;;0.60;0.60;;;;;;;;;;5090794;27;20248;-65
2023/03/14 12:13:16;;;;;;;1.07;0.67;;;;;;;;;;5097722;27;20234;-65
2023/03/14 12:15:50;;;;;;;0.97;0.70;;;;;;;;;;5107393;27;20653;-65
2023/03/14 12:18:26;;;;;;;0.70;0.70;;;;;;;;;;5116258;27;20246;-65
2023/03/14 12:20:56;;;;;;;0.70;0.70;;;;;;;;;;5107954;27;20221;-65
2023/03/14 12:23:24;;;;;;;0.80;0.80;;;;;;;;;;5109619;27;20744;-65
2023/03/14 12:26:10;;;;;;;0.50;0.50;;;;;;;;;;5118491;27;20245;-65
2023/03/14 12:28:38;;;;;;;0.60;0.60;;;;;;;;;;5118154;27;20263;-65
2023/03/14 12:31:24;;;;;;;0.60;0.60;;;;;;;;;;5112107;27;20235;-65
2023/03/14 12:34:03;;;;;;;0.60;0.60;;;;;;;;;;5113090;28;20247;-65
2023/03/14 12:36:42;;;;;;;0.70;0.70;;;;;;;;;;5098537;28;20208;-64
2023/03/14 12:39:14;;;;;;;0.80;0.80;;;;;;;;;;5116756;27;20627;-64
2023/03/14 12:41:51;;;;;;;0.70;0.70;;;;;;;;;;5115601;27;20207;-65
2023/03/14 12:44:31;;;;;;;0.60;0.60;;;;;;;;;;5087283;27;20240;-65
2023/03/14 12:47:17;;;;;;;0.80;0.80;;;;;;;;;;5082972;27;20218;-64
2023/03/14 12:49:57;;;;;;;0.77;0.77;;;;;;;;;;5075843;27;20199;-65
2023/03/14 12:52:57;;;;;;;0.60;0.60;;;;;;;;;;5089719;27;20685;-66
2023/03/14 12:55:39;;;;;;;0.70;0.70;;;;;;;;;;5054015;27;20207;-64
2023/03/14 12:58:06;;;;;;;0.60;0.60;;;;;;;;;;5103624;27;20852;-64
2023/03/14 13:00:34;;;;;;;0.90;0.90;;;;;;;;;;5114786;27;20236;-64
2023/03/14 13:03:13;;;;;;;0.87;0.77;;;;;;;;;;5099076;28;20270;-65
2023/03/14 13:05:52;;;;;;;0.90;0.83;;;;;;;;;;5110562;27;20216;-65
2023/03/14 13:08:33;;;;;;;0.90;0.90;;;;;;;;;;5104230;27;20346;-64
2023/03/14 13:11:02;;;;;;;0.90;0.90;;;;;;;;;;5111132;27;20713;-66
2023/03/14 13:13:29;;;;;;;1.00;1.00;;;;;;;;;;5095534;27;20793;-65
2023/03/14 13:16:04;;;;;;;0.77;0.77;;;;;;;;;;5094039;27;20254;-65
2023/03/14 13:18:36;;;;;;;0.97;0.97;;;;;;;;;;5096141;27;20236;-64
2023/03/14 13:21:16;;;;;;;1.50;1.33;;;;;;;;;;5091855;27;20204;-64
2023/03/14 13:23:55;;;;;;;3.13;2.43;;;;;;;;;;5092503;27;20325;-64
2023/03/14 13:26:24;;;;;;;8.07;3.83;;;;;;;;;;5078698;27;20244;-66
2023/03/14 13:28:51;;;;;;;9.73;4.67;;;;;;;;;;5079389;27;20278;-66
2023/03/14 13:31:22;;;;;;;6.43;3.73;;;;;;;;;;5087488;27;20287;-63
2023/03/14 13:34:00;;;;;;;14.33;7.60;;;;;;;;;;5091814;27;20224;-66
2023/03/14 13:36:28;;;;;;;9.20;5.10;;;;;;;;;;5083874;27;20728;-64
2023/03/14 13:38:57;;;;;;;10.17;5.37;;;;;;;;;;5094225;27;20235;-67
2023/03/14 13:41:31;;;;;;;4.83;3.27;;;;;;;;;;5095143;27;20200;-65
2023/03/14 13:44:01;;;;;;;10.47;5.93;;;;;;;;;;5092798;27;20309;-65
2023/03/14 13:46:29;;;;;;;9.03;4.73;;;;;;;;;;5094521;27;20256;-65
2023/03/14 13:48:58;;;;;;;20.27;11.97;;;;;;;;;;5092792;27;20238;-63
2023/03/14 13:51:29;;;;;;;8.37;5.47;;;;;;;;;;5093903;27;20252;-65
2023/03/14 13:53:56;;;;;;;7.50;4.53;;;;;;;;;;5077750;27;20330;-64
2023/03/14 13:56:25;;;;;;;9.10;6.43;;;;;;;;;;5075646;27;20217;-63
2023/03/14 13:58:55;;;;;;;6.20;4.07;;;;;;;;;;5072976;27;20204;-64
2023/03/14 14:01:24;;;;;;;9.40;6.27;;;;;;;;;;5073258;27;21757;-63
2023/03/14 14:03:53;;;;;;;10.13;6.77;;;;;;;;;;5078520;27;20239;-64
2023/03/14 14:06:32;;;;;;;4.63;3.10;;;;;;;;;;5072285;27;20208;-64
2023/03/14 14:09:01;;;;;;;1.57;1.40;;;;;;;;;;5072088;27;20219;-63
2023/03/14 14:11:33;;;;;;;1.23;1.17;;;;;;;;;;5083840;27;20215;-64
2023/03/14 14:14:19;;;;;;;2.33;1.73;;;;;;;;;;5086191;27;20682;-64
2023/03/14 14:16:48;;;;;;;2.17;1.40;;;;;;;;;;5079758;27;20292;-63
2023/03/14 14:19:19;;;;;;;4.27;1.50;;;;;;;;;;5089110;27;20284;-63
2023/03/14 14:21:46;;;;;;;1.33;1.23;;;;;;;;;;5073238;27;20210;-64
2023/03/14 14:24:17;;;;;;;1.60;1.43;;;;;;;;;;5085571;27;20238;-64
2023/03/14 14:26:50;;;;;;;3.23;1.53;;;;;;;;;;5062869;27;20590;-64
2023/03/14 14:29:36;;;;;;;3.03;1.57;;;;;;;;;;5076789;27;20334;-63
2023/03/14 14:32:10;;;;;;;1.97;1.70;;;;;;;;;;5064884;27;20195;-63
2023/03/14 14:34:49;;;;;;;2.20;1.77;;;;;;;;;;5091250;27;20237;-65
2023/03/14 14:37:20;;;;;;;4.03;1.40;;;;;;;;;;5072871;27;20195;-65
2023/03/14 14:39:48;;;;;;;1.30;1.20;;;;;;;;;;5075026;27;20746;-65
2023/03/14 14:42:17;;;;;;;1.73;1.63;;;;;;;;;;5078707;27;20223;-65
2023/03/14 14:44:45;;;;;;;1.33;1.33;;;;;;;;;;5077897;27;21012;-66
2023/03/14 14:47:14;;;;;;;1.70;1.30;;;;;;;;;;5077962;27;20334;-66
2023/03/14 14:49:41;;;;;;;2.27;1.23;;;;;;;;;;5106522;27;20251;-65
2023/03/14 14:52:16;;;;;;;1.47;1.37;;;;;;;;;;5084613;27;20248;-64
2023/03/14 14:54:55;;;;;;;2.73;1.10;;;;;;;;;;5087930;27;20246;-65
2023/03/14 14:57:24;;;;;;;2.17;1.40;;;;;;;;;;5102776;27;20203;-66
2023/03/14 14:59:53;;;;;;;1.30;1.20;;;;;;;;;;5102090;27;20332;-65